Terminal Aerodrome Forecast
Issued by NWS

Home | Current Version | Previous Version | Text Only | Print | Product List | Glossary On
Versions: 1 2 3 4 5 6 7 8 9 10 11 12 13 14 15 16 17 18 19
000
FTUS43 KMQT 290500
TAFCMX
TAF
KCMX 290538Z 2906/3006 30007KT P6SM BKN100
     FM290800 31005KT P6SM VCSH SCT060 BKN100
      TEMPO 2909/2912 2SM BR SCT005
     FM291200 31005KT P6SM -SHRA BKN050
     FM291900 32009KT P6SM SCT060
      AMD NOT SKED=

USA.gov is the U.S. government's official web portal to all federal, state and local government web resources and services.